Time;durP1;ratioP1;P1;durP2;ratioP2;P2;SDS_P1;SDS_P2;PMS_P1;PMS_P2;Temp;Humidity;BMP_temperature;BMP_pressure;BME280_temperature;BME280_humidity;BME280_pressure;Samples;Min_cycle;Max_cycle;Signal;HPM_P1;HPM_P2
2022/03/20 00:02:03;;;;;;;9.95;8.95;;;5.60;99.90;;;;;;5068355;28;20635;-75
2022/03/20 00:04:30;;;;;;;10.85;8.82;;;5.60;99.90;;;;;;5071579;28;20205;-75
2022/03/20 00:06:57;;;;;;;7.80;7.10;;;5.60;99.90;;;;;;5065304;28;20298;-73
2022/03/20 00:09:23;;;;;;;13.15;8.43;;;5.50;99.90;;;;;;5064644;28;20254;-75
2022/03/20 00:11:50;;;;;;;11.23;7.30;;;5.50;99.80;;;;;;5064406;28;20245;-74
2022/03/20 00:14:18;;;;;;;9.00;7.10;;;5.40;99.70;;;;;;5071645;28;20218;-74
2022/03/20 00:16:45;;;;;;;8.98;7.88;;;5.40;99.90;;;;;;5064398;28;20216;-74
2022/03/20 00:19:11;;;;;;;8.23;7.45;;;5.30;99.90;;;;;;5064730;28;20249;-74
2022/03/20 00:21:38;;;;;;;6.90;6.03;;;5.40;99.90;;;;;;5067923;28;20202;-74
2022/03/20 00:24:05;;;;;;;8.50;7.80;;;5.40;99.40;;;;;;5064256;28;20669;-74
2022/03/20 00:26:33;;;;;;;12.43;9.50;;;5.40;99.80;;;;;;5064316;28;20226;-75
2022/03/20 00:29:00;;;;;;;8.63;6.50;;;5.30;99.90;;;;;;5058573;28;20253;-75
2022/03/20 00:31:32;;;;;;;8.13;7.32;;;5.30;99.90;;;;;;5061480;28;20217;-75
2022/03/20 00:33:59;;;;;;;9.27;8.27;;;5.30;99.80;;;;;;5064097;28;20199;-75
2022/03/20 00:36:25;;;;;;;10.25;7.95;;;5.20;99.90;;;;;;5063983;28;20297;-75
2022/03/20 00:38:52;;;;;;;9.27;7.57;;;5.20;99.80;;;;;;5064692;28;20204;-74
2022/03/20 00:41:18;;;;;;;10.63;7.50;;;5.20;99.70;;;;;;5068449;28;20267;-74
2022/03/20 00:43:45;;;;;;;9.93;6.88;;;5.10;99.50;;;;;;5062397;28;20281;-73
2022/03/20 00:46:12;;;;;;;8.23;7.43;;;5.10;99.90;;;;;;5064919;28;20651;-75
2022/03/20 00:48:40;;;;;;;10.05;8.90;;;5.00;99.90;;;;;;5066500;28;20218;-75
2022/03/20 00:51:10;;;;;;;9.30;7.60;;;5.00;99.90;;;;;;5065890;28;20591;-75
2022/03/20 00:53:38;;;;;;;10.07;8.82;;;5.00;99.90;;;;;;5066955;28;20650;-75
2022/03/20 00:56:05;;;;;;;8.18;6.85;;;4.90;99.90;;;;;;5075177;28;20236;-73
2022/03/20 00:58:33;;;;;;;7.97;6.95;;;4.90;99.90;;;;;;5064281;28;20220;-74
2022/03/20 01:00:59;;;;;;;8.95;7.32;;;5.00;99.90;;;;;;5054041;28;20197;-75
2022/03/20 01:03:27;;;;;;;9.13;7.40;;;5.00;99.90;;;;;;5063588;28;20700;-75
2022/03/20 01:05:55;;;;;;;10.27;8.10;;;5.10;99.40;;;;;;5070783;28;20338;-75
2022/03/20 01:08:21;;;;;;;8.70;6.60;;;5.10;99.30;;;;;;5059019;28;20225;-74
2022/03/20 01:10:48;;;;;;;9.48;7.38;;;5.20;99.50;;;;;;5064245;28;20266;-73
2022/03/20 01:13:14;;;;;;;7.28;6.68;;;5.20;99.70;;;;;;5063078;28;20237;-75
2022/03/20 01:15:41;;;;;;;8.82;7.13;;;5.20;99.40;;;;;;5064459;28;20202;-74
2022/03/20 01:18:08;;;;;;;7.55;6.15;;;5.30;99.20;;;;;;5064008;28;20224;-75
2022/03/20 01:20:35;;;;;;;9.02;6.70;;;5.40;99.10;;;;;;5067058;28;20643;-75
2022/03/20 01:23:04;;;;;;;8.50;6.10;;;5.40;98.80;;;;;;5062972;28;20325;-74
2022/03/20 01:25:31;;;;;;;8.57;7.03;;;5.40;99.00;;;;;;5057042;28;20211;-73
2022/03/20 01:27:58;;;;;;;10.43;7.32;;;5.50;98.60;;;;;;5063624;28;20257;-74
2022/03/20 01:30:24;;;;;;;7.72;6.38;;;5.50;98.50;;;;;;5064135;28;20689;-74
2022/03/20 01:32:51;;;;;;;12.90;7.50;;;5.60;98.40;;;;;;5075816;28;20395;-76
2022/03/20 01:35:18;;;;;;;10.05;7.82;;;5.60;98.10;;;;;;5064378;28;20601;-74
2022/03/20 01:37:44;;;;;;;8.40;7.60;;;5.60;98.00;;;;;;5076330;28;20286;-76
2022/03/20 01:40:12;;;;;;;6.60;5.18;;;5.70;98.10;;;;;;5074364;28;20201;-76
2022/03/20 01:42:39;;;;;;;10.35;6.60;;;5.70;97.80;;;;;;5078984;28;20217;-75
2022/03/20 01:45:17;;;;;;;11.93;7.38;;;5.60;97.50;;;;;;5073593;28;20282;-75
2022/03/20 01:47:47;;;;;;;7.72;6.97;;;5.60;97.60;;;;;;5064798;28;20294;-73
2022/03/20 01:50:13;;;;;;;7.10;6.50;;;5.50;97.40;;;;;;5051585;28;20212;-74
2022/03/20 01:52:40;;;;;;;11.13;7.53;;;5.50;97.40;;;;;;5063594;28;20210;-75
2022/03/20 01:55:08;;;;;;;6.57;6.03;;;5.50;97.20;;;;;;5064108;28;20348;-75
2022/03/20 01:57:39;;;;;;;9.63;7.35;;;5.50;97.20;;;;;;5069563;28;20609;-76
2022/03/20 02:00:07;;;;;;;7.00;6.05;;;5.50;97.60;;;;;;5070713;28;20330;-75
2022/03/20 02:02:34;;;;;;;9.40;7.10;;;5.50;97.00;;;;;;5068532;28;20252;-73
2022/03/20 02:05:01;;;;;;;7.72;6.82;;;5.50;96.50;;;;;;5068171;28;20207;-75
2022/03/20 02:07:28;;;;;;;7.30;6.15;;;5.50;96.50;;;;;;5062642;28;20223;-74
2022/03/20 02:09:55;;;;;;;10.52;6.80;;;5.60;96.30;;;;;;5065182;28;20202;-75
2022/03/20 02:12:22;;;;;;;7.03;6.13;;;5.50;96.30;;;;;;5062032;28;20363;-73
2022/03/20 02:14:50;;;;;;;11.15;7.30;;;5.50;96.30;;;;;;5058761;28;20647;-74
2022/03/20 02:17:16;;;;;;;9.07;7.03;;;5.50;96.30;;;;;;5063265;28;20222;-74
2022/03/20 02:19:44;;;;;;;7.85;5.65;;;5.40;96.40;;;;;;5069887;28;20695;-74
2022/03/20 02:22:12;;;;;;;7.03;6.10;;;5.40;96.40;;;;;;5064968;28;20216;-74
2022/03/20 02:24:41;;;;;;;9.00;7.50;;;5.40;96.30;;;;;;5062464;28;20220;-74
2022/03/20 02:27:12;;;;;;;10.52;7.45;;;5.40;96.20;;;;;;5065351;28;20682;-74
2022/03/20 02:29:40;;;;;;;6.97;6.30;;;5.30;96.10;;;;;;5064264;28;20243;-74
2022/03/20 02:32:09;;;;;;;7.32;6.32;;;5.30;96.00;;;;;;5070684;28;20272;-75
2022/03/20 02:34:37;;;;;;;9.57;7.78;;;5.40;95.80;;;;;;5078254;28;20199;-75
2022/03/20 02:37:04;;;;;;;8.75;6.78;;;5.40;95.70;;;;;;5082428;28;20221;-75
2022/03/20 02:39:33;;;;;;;9.32;6.82;;;5.40;96.20;;;;;;5072981;28;20397;-73
2022/03/20 02:42:03;;;;;;;8.48;5.25;;;5.40;95.70;;;;;;5065822;28;20731;-74
2022/03/20 02:44:50;;;;;;;8.98;6.50;;;5.40;95.70;;;;;;5067647;28;20285;-76
2022/03/20 02:47:20;;;;;;;8.38;6.13;;;5.40;95.40;;;;;;5081305;28;20224;-73
2022/03/20 02:49:48;;;;;;;7.97;6.20;;;5.50;95.20;;;;;;5066603;28;20292;-75
2022/03/20 02:52:15;;;;;;;8.73;6.25;;;5.50;95.40;;;;;;5070286;28;20205;-73
2022/03/20 02:54:43;;;;;;;7.45;6.60;;;5.50;95.60;;;;;;5068711;28;20223;-74
2022/03/20 02:57:10;;;;;;;10.70;7.05;;;5.40;95.50;;;;;;5066284;28;20210;-75
2022/03/20 02:59:36;;;;;;;8.15;7.35;;;5.50;95.10;;;;;;5067224;28;20264;-75
2022/03/20 03:02:03;;;;;;;7.28;6.40;;;5.40;95.00;;;;;;5066910;28;20810;-75
2022/03/20 03:04:30;;;;;;;7.85;6.57;;;5.30;95.00;;;;;;5066437;28;20373;-75
2022/03/20 03:07:02;;;;;;;6.80;6.10;;;5.30;95.20;;;;;;5080682;28;20226;-75
2022/03/20 03:12:14;;;;;;;8.25;6.90;;;5.10;95.30;;;;;;5057034;28;20208;-75
2022/03/20 03:17:28;;;;;;;7.10;6.40;;;5.10;95.70;;;;;;5055166;28;20237;-75
2022/03/20 03:19:55;;;;;;;8.40;6.90;;;5.10;95.60;;;;;;5063858;28;20286;-73
2022/03/20 03:22:22;;;;;;;10.15;7.45;;;5.10;95.40;;;;;;5065672;28;20577;-74
2022/03/20 03:24:48;;;;;;;7.13;6.35;;;5.10;95.50;;;;;;5066364;28;20278;-75
2022/03/20 03:27:16;;;;;;;11.70;8.30;;;5.00;95.50;;;;;;5064957;28;20225;-73
2022/03/20 03:29:43;;;;;;;7.88;7.10;;;5.00;95.50;;;;;;5064501;28;20205;-74
2022/03/20 03:32:10;;;;;;;7.97;6.35;;;5.00;95.50;;;;;;5066367;28;20260;-74
2022/03/20 03:37:22;;;;;;;8.32;7.07;;;4.80;95.80;;;;;;5066231;28;20224;-74
2022/03/20 03:39:49;;;;;;;8.88;6.38;;;4.80;95.80;;;;;;5057858;28;20233;-74
2022/03/20 03:42:17;;;;;;;7.25;6.55;;;4.70;95.90;;;;;;5070318;28;20212;-74
2022/03/20 03:44:44;;;;;;;9.00;7.35;;;4.70;95.80;;;;;;5063923;28;20208;-75
2022/03/20 03:47:10;;;;;;;8.27;6.20;;;4.70;95.70;;;;;;5066002;28;20289;-75
2022/03/20 03:49:37;;;;;;;10.15;7.25;;;4.70;95.90;;;;;;5064574;28;20255;-75
2022/03/20 03:52:05;;;;;;;11.00;8.27;;;4.70;96.10;;;;;;5065312;28;20889;-75
2022/03/20 03:54:32;;;;;;;7.82;6.85;;;4.70;96.10;;;;;;5064257;28;20210;-75
2022/03/20 03:56:59;;;;;;;7.55;6.60;;;4.60;96.00;;;;;;5063347;28;20287;-75
2022/03/20 03:59:27;;;;;;;8.45;7.32;;;4.70;96.10;;;;;;5054431;28;20207;-75
2022/03/20 04:01:56;;;;;;;8.35;7.32;;;4.60;96.40;;;;;;5069334;28;20266;-75
2022/03/20 04:04:22;;;;;;;13.43;7.63;;;4.60;96.20;;;;;;5063259;28;20228;-76
2022/03/20 04:06:49;;;;;;;10.45;8.05;;;4.60;96.00;;;;;;5065617;28;20227;-75
2022/03/20 04:09:16;;;;;;;12.88;9.02;;;4.60;96.20;;;;;;5070010;28;20691;-75
2022/03/20 04:11:42;;;;;;;7.75;6.95;;;4.50;96.20;;;;;;5066416;28;20205;-75
2022/03/20 04:14:09;;;;;;;13.07;7.68;;;4.60;96.30;;;;;;5065919;28;20230;-73
2022/03/20 04:16:37;;;;;;;10.50;8.63;;;4.50;96.10;;;;;;5066205;28;20218;-75
2022/03/20 04:19:04;;;;;;;9.02;6.88;;;4.60;96.30;;;;;;5070746;28;20201;-74
2022/03/20 04:21:31;;;;;;;10.05;8.45;;;4.60;96.40;;;;;;5072425;28;20207;-73
2022/03/20 04:23:58;;;;;;;9.48;7.03;;;4.60;96.00;;;;;;5069995;28;20929;-73
2022/03/20 04:26:25;;;;;;;11.55;7.35;;;4.60;96.30;;;;;;5066186;28;20229;-73
2022/03/20 04:28:53;;;;;;;8.32;7.40;;;4.60;96.40;;;;;;5065707;28;20302;-75
2022/03/20 04:31:21;;;;;;;8.88;7.97;;;4.60;96.20;;;;;;5065614;28;20208;-75
2022/03/20 04:33:51;;;;;;;7.43;6.75;;;4.70;96.30;;;;;;5062934;28;20286;-75
2022/03/20 04:36:21;;;;;;;11.98;8.32;;;4.50;96.40;;;;;;5059550;28;20271;-75
2022/03/20 04:38:48;;;;;;;8.60;7.25;;;4.50;96.30;;;;;;5065711;28;20217;-75
2022/03/20 04:41:17;;;;;;;8.57;7.68;;;4.50;96.70;;;;;;5074720;28;20207;-75
2022/03/20 04:43:44;;;;;;;10.52;7.28;;;4.50;96.50;;;;;;5066722;28;20625;-74
2022/03/20 04:46:10;;;;;;;9.82;8.48;;;4.50;96.40;;;;;;5076957;28;20708;-75
2022/03/20 04:59:35;;;;;;;7.65;6.82;;;4.60;96.20;;;;;;5064168;28;20307;-75
2022/03/20 05:02:02;;;;;;;9.60;8.52;;;4.70;96.20;;;;;;5064822;28;20247;-75
2022/03/20 05:04:29;;;;;;;9.23;8.30;;;4.70;96.20;;;;;;5063424;28;20216;-75
2022/03/20 05:06:57;;;;;;;12.02;7.72;;;4.70;96.30;;;;;;5064614;28;20605;-75
2022/03/20 05:14:50;;;;;;;28.33;8.05;;;4.90;96.10;;;;;;5019588;28;20213;-74
2022/03/20 05:17:16;;;;;;;12.82;9.05;;;4.90;96.30;;;;;;5063857;28;20679;-76
2022/03/20 05:19:43;;;;;;;8.68;7.80;;;5.00;96.30;;;;;;5064261;28;20757;-74
2022/03/20 05:22:11;;;;;;;8.95;7.70;;;5.00;96.30;;;;;;5064972;28;20369;-73
2022/03/20 05:24:40;;;;;;;8.90;8.02;;;5.10;96.40;;;;;;5063981;28;20293;-73
2022/03/20 05:27:08;;;;;;;8.20;7.47;;;5.20;96.50;;;;;;5067499;28;20256;-74
2022/03/20 05:29:35;;;;;;;11.18;8.18;;;5.20;96.20;;;;;;5064705;28;20233;-74
2022/03/20 05:32:03;;;;;;;9.35;8.18;;;5.30;96.10;;;;;;5063355;28;20255;-76
2022/03/20 05:34:30;;;;;;;8.55;7.75;;;5.30;96.10;;;;;;5062715;28;20296;-73
2022/03/20 05:36:57;;;;;;;10.25;7.75;;;5.30;96.10;;;;;;5064377;28;20225;-75
2022/03/20 05:39:25;;;;;;;11.00;7.78;;;5.30;96.20;;;;;;5073138;28;20229;-75
2022/03/20 05:41:52;;;;;;;12.15;7.60;;;5.20;96.20;;;;;;5064187;28;20687;-74
2022/03/20 05:44:21;;;;;;;11.82;8.00;;;5.20;96.40;;;;;;5070538;28;20297;-75
2022/03/20 05:46:50;;;;;;;8.23;7.40;;;5.20;96.40;;;;;;5071683;28;20412;-75
2022/03/20 05:49:17;;;;;;;14.10;9.35;;;5.20;96.40;;;;;;5071561;28;20234;-75
2022/03/20 05:51:45;;;;;;;10.15;8.35;;;5.30;96.30;;;;;;5068761;28;20193;-74
2022/03/20 05:54:11;;;;;;;12.07;8.15;;;5.40;96.40;;;;;;5079547;28;20295;-74
2022/03/20 05:59:23;;;;;;;14.50;8.50;;;5.50;96.40;;;;;;5057900;28;20217;-75
2022/03/20 06:01:50;;;;;;;9.82;8.52;;;5.60;96.20;;;;;;5072828;28;20350;-74
2022/03/20 06:04:17;;;;;;;10.13;8.65;;;5.60;96.30;;;;;;5072643;28;20267;-74
2022/03/20 06:06:44;;;;;;;8.18;6.72;;;5.70;96.20;;;;;;5070335;28;20279;-75
2022/03/20 06:09:11;;;;;;;10.27;8.80;;;5.80;96.20;;;;;;5068699;28;20221;-74
2022/03/20 06:11:39;;;;;;;8.45;7.63;;;5.80;96.40;;;;;;5067463;28;20260;-74
2022/03/20 06:14:06;;;;;;;9.57;8.38;;;5.80;96.30;;;;;;5059295;28;20198;-75
2022/03/20 06:16:34;;;;;;;10.55;7.63;;;5.70;96.40;;;;;;5060411;28;20262;-75
2022/03/20 06:19:01;;;;;;;11.90;8.95;;;5.70;96.60;;;;;;5069353;28;20280;-75
2022/03/20 06:21:28;;;;;;;10.20;8.35;;;5.70;96.50;;;;;;5066578;28;20281;-75
2022/03/20 06:23:55;;;;;;;11.88;7.85;;;5.70;96.80;;;;;;5066636;28;20277;-76
2022/03/20 06:26:23;;;;;;;11.20;9.05;;;5.80;96.40;;;;;;5067426;28;20228;-76
2022/03/20 06:28:51;;;;;;;8.65;7.43;;;5.80;96.30;;;;;;5066945;28;20228;-74
2022/03/20 06:31:19;;;;;;;11.82;8.40;;;5.90;96.40;;;;;;5066738;28;20207;-75
2022/03/20 06:33:46;;;;;;;8.70;7.80;;;6.00;96.50;;;;;;5066452;28;20216;-75
2022/03/20 06:36:13;;;;;;;11.20;8.90;;;6.20;96.40;;;;;;5066584;28;20324;-75
2022/03/20 06:38:40;;;;;;;12.82;8.95;;;6.40;96.40;;;;;;5070119;28;20194;-75
2022/03/20 06:41:08;;;;;;;11.18;8.68;;;6.50;96.00;;;;;;5066917;28;20202;-75
2022/03/20 06:43:36;;;;;;;13.27;10.35;;;6.60;95.80;;;;;;5066105;28;20198;-75
2022/03/20 06:46:05;;;;;;;10.48;8.10;;;6.70;96.00;;;;;;5065850;28;20197;-75
2022/03/20 06:48:32;;;;;;;11.52;8.73;;;6.80;95.90;;;;;;5060623;28;20294;-73
2022/03/20 06:50:59;;;;;;;10.13;8.10;;;6.90;95.30;;;;;;5060536;28;20315;-73
2022/03/20 06:53:26;;;;;;;10.07;9.00;;;6.80;95.50;;;;;;5067505;28;20211;-75
2022/03/20 06:55:53;;;;;;;12.13;10.75;;;6.80;95.70;;;;;;5067584;28;20197;-74
2022/03/20 06:58:22;;;;;;;9.35;8.45;;;6.70;95.70;;;;;;5069674;28;20251;-73
2022/03/20 07:00:50;;;;;;;11.63;9.50;;;6.60;95.60;;;;;;5065306;28;20234;-74
2022/03/20 07:03:18;;;;;;;12.63;8.90;;;6.60;95.30;;;;;;5066672;28;20200;-74
2022/03/20 07:05:44;;;;;;;11.18;7.90;;;6.60;95.50;;;;;;5066162;28;20628;-73
2022/03/20 07:08:11;;;;;;;13.57;9.05;;;6.60;95.50;;;;;;5066420;28;20695;-73
2022/03/20 07:10:38;;;;;;;13.35;9.05;;;6.60;95.50;;;;;;5060130;28;20202;-74
2022/03/20 07:15:57;;;;;;;9.00;8.10;;;6.70;95.40;;;;;;5047423;28;20221;-76
2022/03/20 07:18:26;;;;;;;9.38;8.48;;;6.90;95.30;;;;;;5058295;28;20285;-76
2022/03/20 07:20:54;;;;;;;11.88;8.77;;;7.00;95.70;;;;;;5057516;28;20617;-75
2022/03/20 07:23:22;;;;;;;9.25;8.27;;;7.10;95.20;;;;;;5056029;28;20213;-75
2022/03/20 07:31:17;;;;;;;11.52;9.25;;;7.40;95.00;;;;;;5057427;28;20627;-76
2022/03/20 07:33:47;;;;;;;15.85;9.75;;;7.50;95.00;;;;;;5057252;28;20213;-75
2022/03/20 07:36:15;;;;;;;12.95;9.18;;;7.50;95.00;;;;;;5059243;28;20373;-75
2022/03/20 07:38:42;;;;;;;10.75;9.15;;;7.50;95.20;;;;;;5063381;28;20293;-75
2022/03/20 07:41:09;;;;;;;11.70;9.45;;;7.50;95.00;;;;;;5062777;28;20199;-75
2022/03/20 07:43:36;;;;;;;10.75;9.60;;;7.50;95.20;;;;;;5058852;28;20307;-75
2022/03/20 07:46:02;;;;;;;10.27;8.70;;;7.50;95.20;;;;;;5061592;28;20585;-75
2022/03/20 07:48:29;;;;;;;12.73;10.13;;;7.50;95.20;;;;;;5064676;28;20212;-73
2022/03/20 07:50:58;;;;;;;15.15;9.10;;;7.60;95.10;;;;;;5062754;28;20685;-74
2022/03/20 07:53:25;;;;;;;12.18;9.40;;;7.70;95.20;;;;;;5057929;28;20261;-74
2022/03/20 07:55:52;;;;;;;11.57;9.95;;;7.70;95.10;;;;;;5057703;28;20287;-75
2022/03/20 07:58:19;;;;;;;14.38;10.90;;;7.80;95.30;;;;;;5057464;28;20659;-74
2022/03/20 08:00:46;;;;;;;10.98;9.32;;;7.90;95.00;;;;;;5057190;28;20234;-74
2022/03/20 08:03:13;;;;;;;11.80;10.55;;;8.00;95.30;;;;;;5055981;28;20209;-75
2022/03/20 08:05:40;;;;;;;11.95;10.65;;;8.00;94.90;;;;;;5055828;28;20220;-75
2022/03/20 08:08:11;;;;;;;11.52;9.95;;;8.10;95.00;;;;;;5055651;28;20332;-76
2022/03/20 08:10:37;;;;;;;9.93;8.90;;;8.30;94.80;;;;;;5056073;28;20220;-74
2022/03/20 08:13:05;;;;;;;11.60;10.40;;;8.40;95.00;;;;;;5055979;28;20271;-75
2022/03/20 08:15:32;;;;;;;14.02;11.23;;;8.50;94.80;;;;;;5054315;28;20291;-75
2022/03/20 08:17:58;;;;;;;12.02;10.13;;;8.50;94.70;;;;;;5057002;28;20297;-75
2022/03/20 08:20:25;;;;;;;10.40;9.13;;;8.50;94.60;;;;;;5056693;28;20811;-75
2022/03/20 08:22:52;;;;;;;14.68;9.93;;;8.70;95.00;;;;;;5055584;28;20276;-77
2022/03/20 08:25:20;;;;;;;15.82;10.57;;;8.80;94.50;;;;;;5058077;28;20215;-76
2022/03/20 08:27:49;;;;;;;13.77;9.40;;;8.80;94.50;;;;;;5057701;28;20288;-77
2022/03/20 08:30:17;;;;;;;12.05;10.15;;;8.90;94.40;;;;;;5057632;28;20324;-75
2022/03/20 08:32:44;;;;;;;13.18;11.63;;;8.90;94.10;;;;;;5055962;28;20223;-75
2022/03/20 08:35:13;;;;;;;16.80;9.50;;;8.90;94.40;;;;;;5055420;28;20201;-75
2022/03/20 08:37:42;;;;;;;15.90;10.55;;;9.10;94.30;;;;;;5056288;28;20780;-74
2022/03/20 08:40:15;;;;;;;10.27;9.02;;;9.10;94.10;;;;;;5057068;28;20204;-75
2022/03/20 08:42:44;;;;;;;16.88;11.30;;;9.00;94.20;;;;;;5055324;28;20302;-77
2022/03/20 08:45:11;;;;;;;11.50;9.93;;;8.90;94.40;;;;;;5056490;28;20273;-76
2022/03/20 08:47:38;;;;;;;12.48;9.90;;;9.00;94.40;;;;;;5057173;28;20656;-76
2022/03/20 08:50:05;;;;;;;13.20;10.65;;;8.80;94.60;;;;;;5056005;28;20625;-76
2022/03/20 08:52:32;;;;;;;11.30;10.20;;;8.70;94.70;;;;;;5056762;28;20202;-76
2022/03/20 08:54:59;;;;;;;13.45;10.20;;;8.60;94.50;;;;;;5057711;28;20201;-77
2022/03/20 08:57:27;;;;;;;14.10;11.38;;;8.60;94.50;;;;;;5059815;28;20679;-78
2022/03/20 08:59:55;;;;;;;16.08;10.80;;;8.50;94.70;;;;;;5060319;28;20407;-78
2022/03/20 09:02:22;;;;;;;12.23;10.77;;;8.40;94.70;;;;;;5060795;28;20209;-77
2022/03/20 09:04:49;;;;;;;14.60;10.35;;;8.40;94.90;;;;;;5057405;28;20208;-78
2022/03/20 09:07:15;;;;;;;12.60;10.32;;;8.50;95.20;;;;;;5056132;28;20297;-76
2022/03/20 09:09:42;;;;;;;11.55;9.82;;;8.60;95.10;;;;;;5054585;28;20301;-77
2022/03/20 09:12:11;;;;;;;11.85;10.10;;;8.60;95.00;;;;;;5056727;28;20232;-77
2022/03/20 09:14:38;;;;;;;11.68;10.48;;;8.60;95.10;;;;;;5058339;28;20208;-76
2022/03/20 09:19:54;;;;;;;12.93;9.85;;;8.60;95.20;;;;;;5061534;28;20270;-78
2022/03/20 09:22:21;;;;;;;12.68;10.65;;;8.70;95.30;;;;;;5065875;28;20569;-76
2022/03/20 09:24:48;;;;;;;13.25;10.07;;;8.90;95.40;;;;;;5068053;28;20284;-76
2022/03/20 09:27:15;;;;;;;12.85;9.75;;;9.00;95.50;;;;;;5077773;28;20671;-76
2022/03/20 09:29:42;;;;;;;14.93;11.25;;;9.10;95.50;;;;;;5073583;28;20701;-76
2022/03/20 09:32:10;;;;;;;12.45;10.50;;;9.00;95.50;;;;;;5075705;28;20349;-76
2022/03/20 09:34:37;;;;;;;15.02;11.50;;;9.00;95.70;;;;;;5081149;28;20357;-76
2022/03/20 09:37:05;;;;;;;11.65;10.43;;;9.00;95.80;;;;;;5075364;28;20247;-75
2022/03/20 09:39:32;;;;;;;12.65;10.18;;;9.10;95.80;;;;;;5069624;28;20776;-75
2022/03/20 09:42:00;;;;;;;16.38;10.75;;;9.30;95.40;;;;;;5069521;28;20201;-75
2022/03/20 09:44:27;;;;;;;12.02;10.82;;;9.50;95.20;;;;;;5066929;28;20223;-74
2022/03/20 09:46:54;;;;;;;13.90;11.00;;;9.70;95.20;;;;;;5070410;28;20373;-74
2022/03/20 09:49:25;;;;;;;11.63;10.00;;;10.10;94.40;;;;;;5068931;28;20259;-74
2022/03/20 09:51:52;;;;;;;14.77;10.53;;;10.30;94.20;;;;;;5069447;28;20454;-74
2022/03/20 09:54:19;;;;;;;14.00;11.70;;;10.30;93.90;;;;;;5078524;28;20820;-74
2022/03/20 09:56:50;;;;;;;11.90;10.60;;;10.40;94.20;;;;;;5063432;28;20961;-73
2022/03/20 09:59:17;;;;;;;14.53;10.77;;;10.40;94.10;;;;;;5069185;28;20516;-76
2022/03/20 10:01:44;;;;;;;12.30;11.00;;;10.30;94.30;;;;;;5075232;28;20457;-75
2022/03/20 10:04:12;;;;;;;15.43;12.93;;;10.30;94.20;;;;;;5072744;28;20452;-74
2022/03/20 10:06:41;;;;;;;14.63;11.77;;;10.30;94.10;;;;;;5069177;28;20478;-76
2022/03/20 10:09:10;;;;;;;13.73;11.40;;;10.50;94.40;;;;;;5062179;28;20444;-76
2022/03/20 10:11:41;;;;;;;13.17;11.43;;;10.70;94.30;;;;;;5068715;28;20550;-76
2022/03/20 10:14:18;;;;;;;14.07;10.27;;;10.90;94.20;;;;;;5066730;28;20443;-74
2022/03/20 10:16:48;;;;;;;14.23;11.20;;;11.20;94.30;;;;;;5058610;28;20928;-75
2022/03/20 10:19:32;;;;;;;13.80;11.50;;;11.30;94.10;;;;;;5068033;28;20447;-74
2022/03/20 10:22:04;;;;;;;16.17;11.30;;;11.60;94.20;;;;;;5064622;28;20443;-73
2022/03/20 10:24:32;;;;;;;12.43;9.83;;;11.70;93.90;;;;;;5067573;28;20558;-75
2022/03/20 10:27:08;;;;;;;13.30;11.80;;;11.70;93.60;;;;;;5068840;28;20471;-76
2022/03/20 10:29:36;;;;;;;14.27;10.40;;;11.80;93.80;;;;;;5066836;28;20963;-76
2022/03/20 10:32:08;;;;;;;15.77;12.73;;;11.70;93.30;;;;;;5067133;28;21086;-76
2022/03/20 10:34:49;;;;;;;13.83;11.63;;;11.70;93.50;;;;;;5066636;28;20532;-74
2022/03/20 10:37:17;;;;;;;16.20;11.63;;;11.70;93.60;;;;;;5071540;28;20501;-74
2022/03/20 10:39:44;;;;;;;15.77;12.27;;;11.70;93.70;;;;;;5072139;28;20588;-75
2022/03/20 10:42:12;;;;;;;16.03;11.77;;;11.80;93.40;;;;;;5070570;28;20462;-75
2022/03/20 10:44:39;;;;;;;16.43;12.07;;;11.90;93.40;;;;;;5064995;28;20486;-75
2022/03/20 10:47:10;;;;;;;15.30;10.63;;;12.00;93.40;;;;;;5074450;28;20573;-68
2022/03/20 10:49:38;;;;;;;13.53;11.03;;;12.30;95.10;;;;;;5066696;28;20665;-69
2022/03/20 10:52:06;;;;;;;12.40;10.93;;;12.70;94.50;;;;;;5068397;28;20820;-75
2022/03/20 10:54:43;;;;;;;14.00;11.30;;;12.90;93.10;;;;;;5067161;28;20974;-76
2022/03/20 10:57:11;;;;;;;18.77;12.57;;;13.10;93.00;;;;;;5068488;28;20463;-75
2022/03/20 10:59:38;;;;;;;16.53;12.53;;;13.00;92.50;;;;;;5068373;28;20520;-75
2022/03/20 11:02:08;;;;;;;17.77;11.10;;;12.90;92.30;;;;;;5077465;28;20455;-74
2022/03/20 11:04:35;;;;;;;15.33;12.50;;;12.80;92.20;;;;;;5070245;28;20452;-74
2022/03/20 11:07:07;;;;;;;15.33;12.60;;;12.90;92.50;;;;;;5082349;28;20482;-74
2022/03/20 11:09:34;;;;;;;14.03;11.80;;;13.20;92.80;;;;;;5062091;28;20537;-74
2022/03/20 11:12:06;;;;;;;15.00;11.40;;;13.50;92.40;;;;;;5059240;28;20901;-75
2022/03/20 11:14:36;;;;;;;15.27;11.10;;;13.50;92.10;;;;;;5058414;28;20520;-75
2022/03/20 11:17:05;;;;;;;16.07;11.47;;;13.50;92.20;;;;;;5057967;28;20467;-74
2022/03/20 11:19:34;;;;;;;14.03;11.70;;;13.60;92.40;;;;;;5056648;28;20459;-74
2022/03/20 11:22:03;;;;;;;13.53;11.33;;;13.80;92.10;;;;;;5057711;28;20829;-74
2022/03/20 11:24:30;;;;;;;13.20;11.70;;;14.00;92.20;;;;;;5056645;28;20452;-72
2022/03/20 11:27:00;;;;;;;14.00;10.97;;;14.30;92.70;;;;;;5056843;28;20555;-72
2022/03/20 11:29:30;;;;;;;15.67;11.37;;;14.60;93.10;;;;;;5055919;28;20451;-72
2022/03/20 11:31:58;;;;;;;12.80;10.30;;;14.80;92.20;;;;;;5056119;28;20447;-75
2022/03/20 11:34:26;;;;;;;14.33;12.10;;;14.40;91.60;;;;;;5056320;28;20455;-76
2022/03/20 11:37:07;;;;;;;16.13;11.67;;;14.00;91.80;;;;;;5057670;28;20576;-76
2022/03/20 11:39:34;;;;;;;15.17;11.47;;;13.60;92.10;;;;;;5056255;28;20758;-75
2022/03/20 11:42:23;;;;;;;16.90;11.30;;;13.50;92.50;;;;;;5057115;28;20455;-74
2022/03/20 11:45:10;;;;;;;15.23;12.83;;;13.80;92.70;;;;;;5055743;28;21307;-75
2022/03/20 11:47:38;;;;;;;23.07;12.87;;;14.30;92.50;;;;;;5056624;28;20488;-75
2022/03/20 11:50:09;;;;;;;13.30;11.60;;;14.30;92.40;;;;;;5056273;28;20491;-76
2022/03/20 11:52:49;;;;;;;15.03;12.63;;;14.10;92.60;;;;;;5056179;28;20459;-75
2022/03/20 11:55:37;;;;;;;15.60;12.53;;;14.10;93.10;;;;;;5057667;28;21152;-75
2022/03/20 11:58:06;;;;;;;16.83;12.40;;;14.20;93.20;;;;;;5057287;28;21146;-77
2022/03/20 12:00:36;;;;;;;14.73;12.50;;;14.10;93.40;;;;;;5056685;28;20451;-74
2022/03/20 12:03:40;;;;;;;15.30;11.57;;;13.50;93.90;;;;;;5055675;28;20578;-75
2022/03/20 12:06:37;;;;;;;15.23;11.10;;;13.00;94.40;;;;;;5057000;28;20504;-77
2022/03/20 12:09:17;;;;;;;15.30;11.70;;;12.70;95.10;;;;;;5069593;28;20459;-76
2022/03/20 12:12:00;;;;;;;14.60;11.13;;;12.50;95.60;;;;;;5063918;28;20484;-74
2022/03/20 12:14:32;;;;;;;16.17;12.03;;;12.40;96.00;;;;;;5062421;28;21007;-75
2022/03/20 12:17:01;;;;;;;13.13;11.00;;;12.30;96.30;;;;;;5059341;28;20472;-75
2022/03/20 12:19:38;;;;;;;14.83;12.20;;;12.30;96.60;;;;;;5056795;28;21290;-75
2022/03/20 12:22:06;;;;;;;17.23;10.60;;;12.20;96.90;;;;;;5056566;28;20501;-75
2022/03/20 12:24:46;;;;;;;13.70;10.10;;;12.10;97.10;;;;;;5055779;28;21085;-76
2022/03/20 12:27:42;;;;;;;35.35;34.28;;;12.10;98.50;;;;;;5057710;28;20546;-76
2022/03/20 12:30:38;;;;;;;12.43;10.17;;;12.10;99.20;;;;;;5056226;28;20484;-75
2022/03/20 12:33:23;;;;;;;17.37;12.33;;;12.00;99.90;;;;;;4992219;28;20537;-75
2022/03/20 12:35:52;;;;;;;13.13;11.37;;;12.00;99.90;;;;;;5047011;28;20494;-75
2022/03/20 12:38:40;;;;;;;10.50;9.40;;;11.90;99.90;;;;;;5056294;28;20460;-75
2022/03/20 12:41:15;;;;;;;15.87;10.13;;;11.80;99.90;;;;;;5056683;28;20460;-75
2022/03/20 12:43:43;;;;;;;15.13;10.63;;;11.80;99.90;;;;;;5062387;28;20445;-75
2022/03/20 12:46:11;;;;;;;13.77;10.87;;;11.90;99.90;;;;;;5058227;28;21014;-76
2022/03/20 12:48:51;;;;;;;13.93;12.10;;;11.90;99.80;;;;;;5056702;28;20454;-75
2022/03/20 12:51:30;;;;;;;15.00;11.27;;;12.00;99.80;;;;;;5056561;28;20567;-76
2022/03/20 12:54:11;;;;;;;13.23;11.80;;;12.00;99.50;;;;;;5056035;28;20455;-74
2022/03/20 12:56:54;;;;;;;13.80;10.40;;;12.00;99.60;;;;;;5057588;28;20480;-73
2022/03/20 12:59:21;;;;;;;12.60;10.67;;;12.10;99.60;;;;;;5055970;28;20603;-75
2022/03/20 13:01:48;;;;;;;12.60;9.93;;;12.10;99.60;;;;;;5057637;28;20505;-76
2022/03/20 13:04:18;;;;;;;13.10;10.67;;;12.10;99.70;;;;;;5056351;28;20513;-76
2022/03/20 13:06:44;;;;;;;12.37;11.07;;;12.10;99.80;;;;;;5057757;28;20472;-74
2022/03/20 13:09:13;;;;;;;12.27;11.07;;;12.10;99.70;;;;;;5058116;28;20623;-76
2022/03/20 13:11:51;;;;;;;13.37;11.20;;;12.10;99.70;;;;;;5057645;28;20577;-75
2022/03/20 13:14:19;;;;;;;13.00;11.00;;;12.10;99.90;;;;;;5058022;28;20462;-74
2022/03/20 13:16:53;;;;;;;15.17;12.23;;;12.00;99.90;;;;;;5064332;28;20484;-75
2022/03/20 13:19:29;;;;;;;13.30;10.63;;;12.00;99.90;;;;;;5060891;28;20469;-76
2022/03/20 13:21:56;;;;;;;10.80;8.30;;;12.00;99.90;;;;;;5059700;28;20451;-75
2022/03/20 13:24:30;;;;;;;12.80;10.23;;;11.90;99.90;;;;;;5057960;28;20605;-74
2022/03/20 13:26:58;;;;;;;12.93;10.30;;;11.90;99.90;;;;;;5060222;28;20467;-76
2022/03/20 13:29:25;;;;;;;13.73;10.83;;;11.90;99.90;;;;;;5059497;28;20573;-77
2022/03/20 13:32:03;;;;;;;16.20;12.03;;;11.90;99.90;;;;;;5056889;28;20486;-76